createdAt,value
2018-09-01T00:00:50.392Z,3.70
2018-09-01T00:03:20.133Z,3.25
2018-09-01T00:05:49.869Z,3.45
2018-09-01T00:08:19.691Z,3.90
2018-09-01T00:10:49.637Z,2.87
2018-09-01T00:13:19.461Z,2.92
2018-09-01T00:15:49.260Z,3.50
2018-09-01T00:18:18.955Z,3.00
2018-09-01T00:20:48.661Z,3.87
2018-09-01T00:23:18.402Z,3.60
2018-09-01T00:25:48.089Z,3.33
2018-09-01T00:28:17.779Z,3.40
2018-09-01T00:30:47.804Z,2.80
2018-09-01T00:33:17.582Z,3.60
2018-09-01T00:35:47.399Z,3.65
2018-09-01T00:38:22.176Z,2.80
2018-09-01T00:40:51.860Z,3.37
2018-09-01T00:43:21.585Z,3.22
2018-09-01T00:45:51.368Z,3.30
2018-09-01T00:48:21.290Z,3.17
2018-09-01T00:50:51.000Z,3.12
2018-09-01T00:53:20.716Z,3.00
2018-09-01T00:55:50.396Z,3.10
2018-09-01T00:58:20.215Z,3.08
2018-09-01T01:00:49.986Z,2.85
2018-09-01T01:03:19.648Z,3.33
2018-09-01T01:05:49.314Z,3.50
2018-09-01T01:08:18.997Z,3.77
2018-09-01T01:10:48.704Z,3.52
2018-09-01T01:13:18.468Z,3.70
2018-09-01T01:15:48.247Z,3.50
2018-09-01T01:18:17.974Z,3.50
2018-09-01T01:20:47.771Z,4.15
2018-09-01T01:23:17.449Z,3.20
2018-09-01T01:25:47.352Z,3.10
2018-09-01T01:28:17.030Z,4.15
2018-09-01T01:30:46.738Z,3.77
2018-09-01T01:33:16.629Z,5.35
2018-09-01T01:35:46.407Z,4.20
2018-09-01T01:38:16.223Z,4.58
2018-09-01T01:40:45.905Z,4.37
2018-09-01T01:43:15.609Z,5.50
2018-09-01T01:45:45.340Z,4.20
2018-09-01T01:48:15.246Z,3.85
2018-09-01T01:50:45.148Z,3.90
2018-09-01T01:53:14.934Z,3.30
2018-09-01T01:55:44.610Z,3.50
2018-09-01T01:58:14.354Z,3.75
2018-09-01T02:00:44.072Z,4.03
2018-09-01T02:03:13.790Z,3.77
2018-09-01T02:05:43.483Z,4.12
2018-09-01T02:08:13.166Z,4.25
2018-09-01T02:10:42.860Z,3.52
2018-09-01T02:13:12.518Z,4.25
2018-09-01T02:15:42.214Z,4.42
2018-09-01T02:18:11.938Z,4.67
2018-09-01T02:20:41.702Z,7.67
2018-09-01T02:23:11.395Z,5.42
2018-09-01T02:25:41.093Z,6.33
2018-09-01T02:28:10.846Z,7.92
2018-09-01T02:30:40.547Z,5.87
2018-09-01T02:33:10.319Z,6.15
2018-09-01T02:35:40.215Z,5.97
2018-09-01T02:38:10.011Z,6.60
2018-09-01T02:40:39.719Z,6.17
2018-09-01T02:43:09.460Z,4.90
2018-09-01T02:45:39.149Z,5.80
2018-09-01T02:48:08.798Z,5.42
2018-09-01T02:50:38.679Z,5.12
2018-09-01T02:53:08.402Z,5.47
2018-09-01T02:55:38.251Z,5.25
2018-09-01T02:58:08.261Z,5.15
2018-09-01T03:00:38.773Z,6.20
2018-09-01T03:03:08.657Z,5.05
2018-09-01T03:05:38.400Z,5.87
2018-09-01T03:08:08.130Z,5.47
2018-09-01T03:10:37.815Z,3.40
2018-09-01T03:13:07.607Z,5.40
2018-09-01T03:15:37.367Z,4.60
2018-09-01T03:18:07.072Z,4.00
2018-09-01T03:20:36.761Z,3.90
2018-09-01T03:23:06.445Z,4.20
2018-09-01T03:25:36.085Z,5.03
2018-09-01T03:28:05.918Z,4.30
2018-09-01T03:30:35.703Z,4.20
2018-09-01T03:33:05.412Z,4.28
2018-09-01T03:35:35.284Z,4.05
2018-09-01T03:38:05.126Z,3.87
2018-09-01T03:40:34.886Z,3.98
2018-09-01T03:43:04.707Z,3.45
2018-09-01T03:45:34.434Z,4.17
2018-09-01T03:48:04.322Z,4.28
2018-09-01T03:50:34.084Z,4.83
2018-09-01T03:53:06.821Z,3.77
2018-09-01T03:55:36.489Z,4.50
2018-09-01T03:58:06.616Z,4.53
2018-09-01T04:00:36.342Z,3.83
2018-09-01T04:03:06.186Z,4.28
2018-09-01T04:05:35.916Z,4.00
2018-09-01T04:08:05.925Z,4.30
2018-09-01T04:10:35.723Z,3.70
2018-09-01T04:13:05.558Z,4.30
2018-09-01T04:15:35.455Z,4.20
2018-09-01T04:18:05.324Z,4.58
2018-09-01T04:20:35.044Z,4.20
2018-09-01T04:23:04.826Z,3.87
2018-09-01T04:25:34.554Z,5.33
2018-09-01T04:28:04.306Z,5.20
2018-09-01T04:30:34.144Z,4.78
2018-09-01T04:33:03.877Z,4.30
2018-09-01T04:35:34.121Z,3.87
2018-09-01T04:38:03.903Z,4.78
2018-09-01T04:40:33.625Z,3.55
2018-09-01T04:43:04.266Z,4.28
2018-09-01T04:45:34.001Z,4.33
2018-09-01T04:48:03.837Z,4.10
2018-09-01T04:50:33.537Z,4.50
2018-09-01T04:53:03.496Z,4.12
2018-09-01T04:55:33.199Z,4.00
2018-09-01T04:58:02.874Z,3.90
2018-09-01T05:00:32.876Z,3.80
2018-09-01T05:03:02.655Z,3.90
2018-09-01T05:05:32.305Z,3.70
2018-09-01T05:08:01.950Z,3.55
2018-09-01T05:10:31.706Z,4.22
2018-09-01T05:13:01.470Z,3.87
2018-09-01T05:15:31.142Z,4.45
2018-09-01T05:18:00.911Z,4.85
2018-09-01T05:20:30.593Z,4.30
2018-09-01T05:23:00.331Z,3.85
2018-09-01T05:25:31.223Z,4.05
2018-09-01T05:28:01.169Z,4.05
2018-09-01T05:30:30.894Z,4.05
2018-09-01T05:33:00.714Z,4.70
2018-09-01T05:35:30.448Z,3.95
2018-09-01T05:38:00.161Z,4.25
2018-09-01T05:40:30.069Z,5.25
2018-09-01T05:42:59.913Z,3.42
2018-09-01T05:45:29.590Z,4.50
2018-09-01T05:47:59.294Z,4.12
2018-09-01T05:50:29.007Z,4.28
2018-09-01T05:52:58.753Z,4.45
2018-09-01T05:55:28.497Z,3.80
2018-09-01T05:57:58.165Z,4.00
2018-09-01T06:00:28.041Z,3.75
2018-09-01T06:02:57.768Z,4.55
2018-09-01T06:05:27.613Z,4.65
2018-09-01T06:07:57.339Z,4.55
2018-09-01T06:10:27.066Z,3.98
2018-09-01T06:12:56.792Z,4.12
2018-09-01T06:15:26.546Z,4.10
2018-09-01T06:17:56.341Z,4.83
2018-09-01T06:20:25.969Z,5.10
2018-09-01T06:22:55.682Z,5.17
2018-09-01T06:25:25.471Z,4.80
2018-09-01T06:27:57.381Z,4.80
2018-09-01T06:30:29.919Z,5.87
2018-09-01T06:32:59.750Z,5.23
2018-09-01T06:35:29.483Z,6.07
2018-09-01T06:37:59.226Z,4.90
2018-09-01T06:40:29.005Z,5.07
2018-09-01T06:42:58.952Z,4.40
2018-09-01T06:45:28.628Z,4.40
2018-09-01T06:47:58.355Z,4.60
2018-09-01T06:50:28.200Z,5.17
2018-09-01T06:52:58.098Z,4.20
2018-09-01T06:55:27.779Z,4.10
2018-09-01T06:57:57.571Z,4.73
2018-09-01T07:00:27.349Z,4.37
2018-09-01T07:02:57.596Z,4.73
2018-09-01T07:05:27.442Z,4.57
2018-09-01T07:07:57.164Z,4.57
2018-09-01T07:10:26.877Z,4.47
2018-09-01T07:12:56.607Z,4.60
2018-09-01T07:15:26.387Z,5.50
2018-09-01T07:17:56.049Z,5.17
2018-09-01T07:20:25.883Z,4.00
2018-09-01T07:22:55.573Z,5.17
2018-09-01T07:25:25.399Z,5.47
2018-09-01T07:27:55.334Z,4.73
2018-09-01T07:30:25.098Z,4.20
2018-09-01T07:32:54.811Z,4.70
2018-09-01T07:35:24.566Z,4.57
2018-09-01T07:37:54.460Z,5.17
2018-09-01T07:40:24.142Z,4.73
2018-09-01T07:42:53.864Z,4.77
2018-09-01T07:45:23.589Z,4.90
2018-09-01T07:47:53.315Z,4.90
2018-09-01T07:50:23.206Z,4.50
2018-09-01T07:52:55.367Z,4.83
2018-09-01T07:55:25.113Z,5.60
2018-09-01T07:57:54.969Z,4.80
2018-09-01T08:00:24.725Z,5.37
2018-09-01T08:02:54.426Z,5.03
2018-09-01T08:05:24.207Z,5.60
2018-09-01T08:07:54.093Z,4.50
2018-09-01T08:10:23.828Z,4.13
2018-09-01T08:12:53.506Z,4.90
2018-09-01T08:15:23.528Z,4.73
2018-09-01T08:17:53.346Z,4.17
2018-09-01T08:20:23.073Z,3.60
2018-09-01T08:22:52.948Z,3.20
2018-09-01T08:25:22.712Z,2.70
2018-09-01T08:30:35.113Z,3.30
2018-09-01T08:33:10.501Z,3.60
2018-09-01T08:35:40.472Z,3.63
2018-09-01T08:38:10.285Z,3.70
2018-09-01T08:40:40.100Z,4.17
2018-09-01T08:43:09.934Z,4.30
2018-09-01T08:45:39.804Z,3.27
2018-09-01T08:48:09.540Z,3.00
2018-09-01T08:50:39.571Z,3.73
2018-09-01T08:53:09.290Z,3.40
2018-09-01T08:55:39.102Z,2.30
2018-09-01T08:58:08.866Z,2.70
2018-09-01T09:00:38.696Z,2.67
2018-09-01T09:03:08.408Z,3.00
2018-09-01T09:05:38.229Z,3.50
2018-09-01T09:08:07.957Z,2.97
2018-09-01T09:10:37.857Z,3.23
2018-09-01T09:13:07.708Z,3.00
2018-09-01T09:15:37.424Z,3.00
2018-09-01T09:18:07.162Z,2.10
2018-09-01T09:20:36.938Z,2.40
2018-09-01T09:23:07.292Z,1.73
2018-09-01T09:25:37.010Z,2.03
2018-09-01T09:28:07.417Z,1.90
2018-09-01T09:30:37.146Z,2.40
2018-09-01T09:33:07.090Z,2.00
2018-09-01T09:35:36.782Z,2.00
2018-09-01T09:38:06.731Z,1.97
2018-09-01T09:40:36.530Z,1.80
2018-09-01T09:43:06.550Z,1.50
2018-09-01T09:45:36.255Z,1.50
2018-09-01T09:48:06.088Z,2.10
2018-09-01T09:50:35.811Z,1.70
2018-09-01T09:53:05.972Z,1.73
2018-09-01T09:55:35.821Z,1.90
2018-09-01T09:58:05.728Z,1.37
2018-09-01T10:00:40.550Z,1.50
2018-09-01T10:03:10.514Z,1.67
2018-09-01T10:05:40.336Z,1.63
2018-09-01T10:08:10.802Z,2.07
2018-09-01T10:10:40.571Z,1.97
2018-09-01T10:13:10.400Z,1.57
2018-09-01T10:15:40.257Z,1.27
2018-09-01T10:18:09.982Z,1.60
2018-09-01T10:20:39.897Z,1.73
2018-09-01T10:23:09.973Z,1.47
2018-09-01T10:25:39.849Z,1.90
2018-09-01T10:28:09.668Z,1.20
2018-09-01T10:30:40.060Z,1.30
2018-09-01T10:33:09.851Z,1.70
2018-09-01T10:35:39.545Z,1.40
2018-09-01T10:38:09.302Z,1.20
2018-09-01T10:40:39.173Z,1.10
2018-09-01T10:43:09.999Z,1.20
2018-09-01T10:45:39.826Z,1.00
2018-09-01T10:48:09.588Z,1.60
2018-09-01T10:50:39.646Z,1.10
2018-09-01T10:53:09.549Z,1.40
2018-09-01T10:55:39.309Z,1.77
2018-09-01T10:58:09.017Z,1.23
2018-09-01T11:00:38.720Z,1.50
2018-09-01T11:03:08.435Z,1.47
2018-09-01T11:05:38.410Z,1.20
2018-09-01T11:08:08.098Z,1.10
2018-09-01T11:10:37.881Z,1.40
2018-09-01T11:13:07.573Z,1.47
2018-09-01T11:15:38.486Z,1.20
2018-09-01T11:18:08.872Z,1.40
2018-09-01T11:20:38.784Z,1.33
2018-09-01T11:23:08.491Z,1.60
2018-09-01T11:25:38.287Z,1.10
2018-09-01T11:28:08.653Z,1.30
2018-09-01T11:30:40.884Z,1.33
2018-09-01T11:33:10.628Z,1.37
2018-09-01T11:35:40.500Z,1.30
2018-09-01T11:38:10.372Z,1.70
2018-09-01T11:40:40.069Z,1.40
2018-09-01T11:43:10.068Z,1.67
2018-09-01T11:45:40.557Z,1.80
2018-09-01T11:48:10.363Z,1.70
2018-09-01T11:50:40.143Z,1.63
2018-09-01T11:53:10.015Z,1.73
2018-09-01T11:55:39.782Z,1.50
2018-09-01T11:58:09.778Z,1.50
2018-09-01T12:00:39.606Z,1.77
2018-09-01T12:03:09.440Z,1.30
2018-09-01T12:05:39.408Z,1.50
2018-09-01T12:08:09.143Z,1.40
2018-09-01T12:10:41.690Z,1.70
2018-09-01T12:13:11.408Z,1.67
2018-09-01T12:15:41.286Z,1.73
2018-09-01T12:18:11.132Z,1.70
2018-09-01T12:20:41.173Z,1.97
2018-09-01T12:23:10.890Z,1.73
2018-09-01T12:25:40.619Z,1.80
2018-09-01T12:28:10.396Z,1.50
2018-09-01T12:30:40.115Z,2.17
2018-09-01T12:33:09.814Z,1.60
2018-09-01T12:35:39.798Z,1.70
2018-09-01T12:38:09.561Z,1.90
2018-09-01T12:40:39.472Z,1.87
2018-09-01T12:43:09.518Z,1.40
2018-09-01T12:45:39.210Z,1.63
2018-09-01T12:48:09.085Z,1.70
2018-09-01T12:50:38.772Z,1.70
2018-09-01T12:53:08.630Z,1.90
2018-09-01T12:55:39.481Z,1.40
2018-09-01T12:58:09.203Z,1.40
2018-09-01T13:00:39.201Z,1.60
2018-09-01T13:03:09.986Z,2.00
2018-09-01T13:05:39.944Z,1.43
2018-09-01T13:08:09.806Z,1.70
2018-09-01T13:10:41.158Z,1.67
2018-09-01T13:13:12.042Z,1.80
2018-09-01T13:15:42.485Z,1.90
2018-09-01T13:18:12.348Z,1.30
2018-09-01T13:20:42.177Z,1.70
2018-09-01T13:23:11.975Z,1.77
2018-09-01T13:25:41.872Z,1.70
2018-09-01T13:28:11.742Z,1.47
2018-09-01T13:30:41.582Z,1.80
2018-09-01T13:33:11.546Z,1.67
2018-09-01T13:35:41.653Z,1.90
2018-09-01T13:38:11.495Z,1.80
2018-09-01T13:40:41.621Z,1.77
2018-09-01T13:43:12.617Z,2.37
2018-09-01T13:45:42.476Z,2.10
2018-09-01T13:48:12.363Z,1.70
2018-09-01T13:50:42.214Z,2.50
2018-09-01T13:53:11.993Z,1.73
2018-09-01T13:55:41.936Z,1.70
2018-09-01T13:58:11.844Z,1.90
2018-09-01T14:00:41.993Z,1.77
2018-09-01T14:03:11.904Z,1.70
2018-09-01T14:05:41.582Z,3.33
2018-09-01T14:08:11.351Z,1.93
2018-09-01T14:10:41.474Z,1.80
2018-09-01T14:13:11.290Z,2.97
2018-09-01T14:15:42.156Z,3.50
2018-09-01T14:18:11.941Z,2.20
2018-09-01T14:20:42.681Z,2.37
2018-09-01T14:23:12.528Z,2.37
2018-09-01T14:25:43.581Z,2.03
2018-09-01T14:28:13.969Z,2.20
2018-09-01T14:30:43.806Z,2.43
2018-09-01T14:33:14.152Z,2.80
2018-09-01T14:35:44.971Z,2.23
2018-09-01T14:38:14.728Z,2.10
2018-09-01T14:40:44.435Z,2.27
2018-09-01T14:43:14.173Z,2.50
2018-09-01T14:45:43.902Z,2.70
2018-09-01T14:48:13.608Z,2.60
2018-09-01T14:50:43.305Z,2.20
2018-09-01T14:53:13.171Z,2.23
2018-09-01T14:55:43.262Z,2.03
2018-09-01T14:58:14.195Z,2.10
2018-09-01T15:00:44.925Z,2.20
2018-09-01T15:03:14.774Z,1.93
2018-09-01T15:05:45.065Z,2.37
2018-09-01T15:08:15.497Z,2.13
2018-09-01T15:10:45.257Z,2.13
2018-09-01T15:13:15.603Z,1.83
2018-09-01T15:15:45.625Z,2.00
2018-09-01T15:18:16.209Z,1.53
2018-09-01T15:20:46.475Z,2.07
2018-09-01T15:23:16.214Z,2.20
2018-09-01T15:25:46.189Z,2.40
2018-09-01T15:28:16.945Z,2.33
2018-09-01T15:30:46.914Z,1.60
2018-09-01T15:33:19.605Z,1.90
2018-09-01T15:35:49.589Z,2.73
2018-09-01T15:40:45.089Z,2.37
2018-09-01T15:43:14.907Z,1.93
2018-09-01T15:45:44.651Z,2.27
2018-09-01T15:48:14.507Z,1.80
2018-09-01T15:50:44.247Z,3.97
2018-09-01T15:53:13.957Z,1.73
2018-09-01T15:55:43.811Z,2.47
2018-09-01T15:58:13.640Z,1.70
2018-09-01T16:00:43.328Z,2.27
2018-09-01T16:03:13.204Z,1.60
2018-09-01T16:05:42.917Z,1.57
2018-09-01T16:08:12.703Z,3.93
2018-09-01T16:10:42.408Z,3.37
2018-09-01T16:13:12.165Z,2.30
2018-09-01T16:15:42.018Z,2.90
2018-09-01T16:18:12.084Z,2.10
2018-09-01T16:20:41.945Z,1.73
2018-09-01T16:23:11.691Z,3.00
2018-09-01T16:25:41.438Z,2.60
2018-09-01T16:28:11.206Z,3.50
2018-09-01T16:30:41.002Z,3.03
2018-09-01T16:33:10.723Z,2.40
2018-09-01T16:35:40.933Z,2.60
2018-09-01T16:38:12.125Z,2.10
2018-09-01T16:40:43.734Z,2.30
2018-09-01T16:43:13.814Z,2.43
2018-09-01T16:45:43.592Z,2.20
2018-09-01T16:48:13.354Z,1.90
2018-09-01T16:50:43.405Z,2.27
2018-09-01T16:53:13.287Z,2.03
2018-09-01T16:55:43.187Z,2.20
2018-09-01T16:58:12.992Z,2.10
2018-09-01T17:00:42.944Z,1.93
2018-09-01T17:03:12.546Z,2.20
2018-09-01T17:05:42.254Z,2.00
2018-09-01T17:08:12.087Z,2.20
2018-09-01T17:10:41.984Z,2.20
2018-09-01T17:13:11.755Z,1.97
2018-09-01T17:15:41.487Z,1.90
2018-09-01T17:18:11.286Z,2.20
2018-09-01T17:20:40.958Z,2.30
2018-09-01T17:23:10.672Z,2.10
2018-09-01T17:25:40.398Z,2.20
2018-09-01T17:28:10.121Z,2.23
2018-09-01T17:30:39.918Z,1.97
2018-09-01T17:33:09.813Z,2.77
2018-09-01T17:35:39.617Z,1.73
2018-09-01T17:38:10.174Z,2.60
2018-09-01T17:40:39.995Z,2.70
2018-09-01T17:43:09.675Z,3.00
2018-09-01T17:45:39.398Z,2.70
2018-09-01T17:48:09.193Z,2.73
2018-09-01T17:50:38.968Z,2.93
2018-09-01T17:53:08.678Z,3.20
2018-09-01T17:55:38.440Z,3.63
2018-09-01T17:58:08.244Z,4.03
2018-09-01T18:00:38.147Z,2.80
2018-09-01T18:03:08.556Z,3.80
2018-09-01T18:05:38.339Z,3.07
2018-09-01T18:08:08.005Z,2.53
2018-09-01T18:10:37.795Z,3.10
2018-09-01T18:13:07.791Z,2.67
2018-09-01T18:15:37.513Z,4.03
2018-09-01T18:18:08.250Z,3.80
2018-09-01T18:20:38.029Z,8.20
2018-09-01T18:23:07.952Z,4.43
2018-09-01T18:25:37.659Z,3.50
2018-09-01T18:28:07.502Z,4.47
2018-09-01T18:30:37.182Z,4.43
2018-09-01T18:33:06.897Z,3.90
2018-09-01T18:35:36.746Z,3.97
2018-09-01T18:38:06.722Z,7.13
2018-09-01T18:40:36.526Z,5.10
2018-09-01T18:43:06.254Z,4.80
2018-09-01T18:45:35.992Z,3.53
2018-09-01T18:48:06.036Z,3.00
2018-09-01T18:53:00.756Z,10.60
2018-09-01T18:55:30.498Z,7.30
2018-09-01T18:58:00.218Z,5.80
2018-09-01T19:00:30.437Z,2.70
2018-09-01T19:03:00.173Z,4.17
2018-09-01T19:05:29.879Z,2.60
2018-09-01T19:07:59.698Z,3.00
2018-09-01T19:10:29.406Z,2.50
2018-09-01T19:12:59.188Z,2.90
2018-09-01T19:15:28.965Z,2.80
2018-09-01T19:17:58.802Z,2.40
2018-09-01T19:20:29.577Z,3.30
2018-09-01T19:23:01.433Z,2.90
2018-09-01T19:25:31.292Z,2.43
2018-09-01T19:28:01.078Z,2.47
2018-09-01T19:30:30.894Z,3.03
2018-09-01T19:33:00.613Z,2.47
2018-09-01T19:35:30.435Z,2.80
2018-09-01T19:38:00.277Z,2.73
2018-09-01T19:40:30.389Z,4.00
2018-09-01T19:43:00.868Z,2.53
2018-09-01T19:45:31.635Z,3.37
2018-09-01T19:48:01.313Z,2.83
2018-09-01T19:50:31.159Z,3.40
2018-09-01T19:53:00.995Z,2.40
2018-09-01T19:55:30.938Z,2.77
2018-09-01T19:58:00.865Z,3.20
2018-09-01T20:00:30.767Z,2.63
2018-09-01T20:03:00.602Z,3.53
2018-09-01T20:05:30.568Z,3.33
2018-09-01T20:08:00.432Z,2.73
2018-09-01T20:10:30.252Z,2.97
2018-09-01T20:13:00.024Z,3.30
2018-09-01T20:15:29.866Z,2.70
2018-09-01T20:17:59.924Z,3.10
2018-09-01T20:20:29.725Z,3.27
2018-09-01T20:22:59.474Z,3.80
2018-09-01T20:25:29.299Z,3.43
2018-09-01T20:27:59.019Z,3.30
2018-09-01T20:30:28.745Z,3.33
2018-09-01T20:32:58.444Z,4.07
2018-09-01T20:36:03.579Z,4.03
2018-09-01T20:38:33.358Z,4.10
2018-09-01T20:41:03.150Z,3.60
2018-09-01T20:43:32.962Z,4.50
2018-09-01T20:46:02.696Z,4.37
2018-09-01T20:48:32.409Z,5.30
2018-09-01T20:51:02.134Z,4.07
2018-09-01T20:53:31.823Z,4.97
2018-09-01T20:56:02.642Z,5.50
2018-09-01T20:58:32.581Z,6.73
2018-09-01T21:01:03.557Z,6.20
2018-09-01T21:03:33.338Z,5.57
2018-09-01T21:06:03.115Z,4.80
2018-09-01T21:08:33.158Z,5.50
2018-09-01T21:11:02.984Z,4.70
2018-09-01T21:13:32.717Z,5.20
2018-09-01T21:16:02.514Z,5.30
2018-09-01T21:18:32.274Z,4.33
2018-09-01T21:21:02.002Z,4.80
2018-09-01T21:23:31.961Z,5.30
2018-09-01T21:26:01.828Z,7.00
2018-09-01T21:28:32.883Z,5.30
2018-09-01T21:31:02.852Z,6.10
2018-09-01T21:33:32.671Z,4.97
2018-09-01T21:36:02.695Z,5.10
2018-09-01T21:38:32.437Z,4.03
2018-09-01T21:41:02.166Z,5.23
2018-09-01T21:43:31.894Z,4.97
2018-09-01T21:46:02.662Z,4.60
2018-09-01T21:48:32.436Z,4.30
2018-09-01T21:51:02.158Z,4.70
2018-09-01T21:53:31.904Z,5.60
2018-09-01T21:56:01.725Z,5.13
2018-09-01T21:58:31.447Z,6.00
2018-09-01T22:01:06.316Z,4.87
2018-09-01T22:03:40.139Z,5.40
2018-09-01T22:06:09.957Z,5.80
2018-09-01T22:08:39.633Z,5.00
2018-09-01T22:11:09.489Z,4.60
2018-09-01T22:13:39.897Z,4.37
2018-09-01T22:16:09.866Z,5.50
2018-09-01T22:18:40.371Z,5.30
2018-09-01T22:21:11.321Z,5.50
2018-09-01T22:23:41.721Z,4.80
2018-09-01T22:26:12.168Z,5.10
2018-09-01T22:28:43.053Z,5.00
2018-09-01T22:31:12.904Z,5.50
2018-09-01T22:33:44.014Z,5.55
2018-09-01T22:36:13.876Z,5.43
2018-09-01T22:38:43.840Z,6.20
2018-09-01T22:41:14.779Z,4.97
2018-09-01T22:43:44.764Z,5.40
2018-09-01T22:46:15.230Z,5.23
2018-09-01T22:48:44.937Z,5.90
2018-09-01T22:51:14.724Z,5.10
2018-09-01T22:53:44.559Z,5.20
2018-09-01T22:56:15.508Z,6.20
2018-09-01T22:58:45.771Z,5.60
2018-09-01T23:01:15.593Z,4.47
2018-09-01T23:03:45.245Z,5.33
2018-09-01T23:06:15.105Z,6.03
2018-09-01T23:08:45.426Z,6.23
2018-09-01T23:11:15.321Z,5.40
2018-09-01T23:13:45.096Z,4.80
2018-09-01T23:16:14.862Z,5.22
2018-09-01T23:18:44.792Z,5.33
2018-09-01T23:21:14.580Z,5.30
2018-09-01T23:23:44.245Z,8.70
2018-09-01T23:26:14.018Z,7.60
2018-09-01T23:28:43.691Z,7.78
2018-09-01T23:31:13.422Z,8.75
2018-09-01T23:33:43.262Z,9.45
2018-09-01T23:36:12.962Z,10.97
2018-09-01T23:38:42.742Z,7.33
2018-09-01T23:41:12.475Z,8.70
2018-09-01T23:43:42.292Z,7.17
2018-09-01T23:46:12.026Z,6.62
2018-09-01T23:48:41.833Z,6.72
2018-09-01T23:51:11.534Z,7.37
2018-09-01T23:53:41.335Z,6.12
2018-09-01T23:56:11.114Z,5.37
2018-09-01T23:58:40.822Z,6.35
